Time;durP1;ratioP1;P1;durP2;ratioP2;P2;SDS_P1;SDS_P2;PMS_P1;PMS_P2;Temp;Humidity;BMP_temperature;BMP_pressure;BME280_temperature;BME280_humidity;BME280_pressure;Samples;Min_cycle;Max_cycle;Signal;HPM_P1;HPM_P2
2022/05/26 00:01:24;;;;;;;20.65;3.70;;;;;;;12.23;78.00;101066.25;5055624;28;20436;-50
2022/05/26 00:03:51;;;;;;;20.02;4.13;;;;;;;12.19;77.89;101060.41;5073414;28;20082;-48
2022/05/26 00:06:20;;;;;;;19.25;3.42;;;;;;;12.16;77.94;101064.31;5073388;28;20044;-48
2022/05/26 00:08:47;;;;;;;24.77;4.57;;;;;;;12.10;77.83;101056.16;5073306;28;20037;-53
2022/05/26 00:11:18;;;;;;;19.77;3.85;;;;;;;12.11;77.90;101071.28;5073011;28;20032;-49
2022/05/26 00:13:44;;;;;;;26.55;3.92;;;;;;;12.09;78.34;101066.09;5072817;28;20032;-49
2022/05/26 00:16:11;;;;;;;19.90;3.65;;;;;;;11.99;78.60;101058.31;5073095;28;20196;-48
2022/05/26 00:18:37;;;;;;;24.60;4.25;;;;;;;12.03;78.99;101058.75;5054917;28;20028;-49
2022/05/26 00:21:04;;;;;;;32.90;4.45;;;;;;;12.02;79.11;101065.19;5072598;28;20027;-48
2022/05/26 00:23:30;;;;;;;26.80;4.60;;;;;;;11.96;79.34;101063.22;5072258;28;20070;-47
2022/05/26 00:25:56;;;;;;;27.48;3.75;;;;;;;11.96;79.32;101058.69;5038987;28;20104;-52
2022/05/26 00:28:22;;;;;;;25.98;4.22;;;;;;;11.88;79.67;101057.94;5074171;28;20472;-53
2022/05/26 00:30:48;;;;;;;20.52;4.50;;;;;;;11.90;79.57;101067.50;5077089;28;20032;-52
2022/05/26 00:33:16;;;;;;;21.23;4.25;;;;;;;11.90;79.94;101075.59;5078235;28;20039;-50
2022/05/26 00:35:42;;;;;;;21.20;4.18;;;;;;;11.82;80.05;101076.50;5078341;28;20044;-49
2022/05/26 00:38:09;;;;;;;25.88;4.63;;;;;;;11.79;80.02;101084.97;5077602;28;20418;-50
2022/05/26 00:40:37;;;;;;;26.05;4.28;;;;;;;11.78;80.26;101088.66;5056096;28;20036;-50
2022/05/26 00:43:03;;;;;;;32.80;5.07;;;;;;;11.73;80.17;101088.38;5055652;28;20060;-47
2022/05/26 00:45:36;;;;;;;28.95;5.63;;;;;;;11.78;80.42;101098.59;5073180;28;20031;-47
2022/05/26 00:48:08;;;;;;;22.10;4.72;;;;;;;11.66;80.53;101075.84;5055722;28;20043;-47
2022/05/26 00:50:42;;;;;;;19.55;4.75;;;;;;;11.67;79.83;101085.59;5073602;28;20395;-51
2022/05/26 00:53:15;;;;;;;21.85;4.75;;;;;;;11.64;80.55;101086.78;5073241;28;20112;-47
2022/05/26 00:56:03;;;;;;;22.55;4.80;;;;;;;11.68;80.51;101101.56;5073747;28;20020;-47
2022/05/26 00:58:33;;;;;;;27.50;4.68;;;;;;;11.61;80.84;101095.25;5073389;28;20040;-47
2022/05/26 01:01:02;;;;;;;20.15;4.43;;;;;;;11.62;80.48;101102.28;5038699;28;20028;-48
2022/05/26 01:03:35;;;;;;;23.10;5.07;;;;;;;11.58;80.46;101098.31;5075073;28;20032;-48
2022/05/26 01:06:14;;;;;;;25.45;4.93;;;;;;;11.52;80.58;101099.06;5076993;28;20032;-47
2022/05/26 01:08:48;;;;;;;20.20;4.70;;;;;;;11.53;80.58;101098.84;5077013;28;20040;-49
2022/05/26 01:11:14;;;;;;;23.23;4.72;;;;;;;11.46;79.98;101100.63;5076988;28;20377;-48
2022/05/26 01:13:47;;;;;;;24.85;4.70;;;;;;;11.49;80.20;101115.53;5076338;28;20062;-47
2022/05/26 01:16:24;;;;;;;16.25;3.97;;;;;;;11.46;80.44;101113.22;5077141;28;20033;-49
2022/05/26 01:19:22;;;;;;;24.25;4.18;;;;;;;11.31;80.45;101092.53;5058583;28;20365;-48
2022/05/26 01:21:56;;;;;;;17.30;3.90;;;;;;;11.31;80.48;101092.53;5076693;28;20044;-48
2022/05/26 01:24:50;;;;;;;22.70;5.90;;;;;;;11.40;80.71;101104.88;5076421;28;20056;-47
2022/05/26 01:27:32;;;;;;;23.02;4.80;;;;;;;11.23;81.06;101081.84;5061240;28;20039;-49
2022/05/26 01:30:29;;;;;;;23.85;4.93;;;;;;;11.33;80.44;101116.53;5076539;28;20464;-47
2022/05/26 01:33:16;;;;;;;32.50;6.28;;;;;;;11.31;81.49;101108.66;5062440;28;20036;-48
2022/05/26 01:38:46;;;;;;;21.98;6.20;;;;;;;11.26;82.26;101113.75;5076459;28;20029;-48
2022/05/26 01:41:36;;;;;;;38.60;7.40;;;;;;;11.22;81.98;101104.38;5076753;28;20086;-49
2022/05/26 01:44:32;;;;;;;36.72;7.43;;;;;;;11.21;82.02;101102.69;5076686;28;20120;-47
2022/05/26 01:47:01;;;;;;;20.25;7.13;;;;;;;11.15;82.77;101100.75;5045909;28;20429;-47
2022/05/26 01:49:42;;;;;;;37.97;7.60;;;;;;;11.16;82.58;101110.47;5076106;28;20024;-48
2022/05/26 01:52:27;;;;;;;27.50;6.82;;;;;;;11.05;82.33;101103.69;5076542;28;20047;-47
2022/05/26 01:55:17;;;;;;;23.85;6.65;;;;;;;11.10;82.61;101114.72;5043432;28;20020;-48
2022/05/26 01:57:56;;;;;;;26.42;6.85;;;;;;;10.99;82.54;101099.03;5076295;28;20103;-47
2022/05/26 02:00:22;;;;;;;25.17;6.32;;;;;;;11.00;82.75;101106.09;5057856;28;20104;-47
2022/05/26 02:02:56;;;;;;;24.90;6.72;;;;;;;11.08;82.63;101126.69;5075695;28;20040;-47
2022/05/26 02:05:26;;;;;;;26.27;6.38;;;;;;;10.98;82.40;101103.56;5075630;28;20488;-47
2022/05/26 02:08:08;;;;;;;32.03;6.80;;;;;;;11.06;82.54;101124.16;5075209;28;20032;-48
2022/05/26 02:10:41;;;;;;;19.23;6.78;;;;;;;11.06;83.05;101128.72;5058215;28;20048;-47
2022/05/26 02:13:12;;;;;;;24.17;6.85;;;;;;;11.03;82.97;101130.75;5075049;28;20431;-47
2022/05/26 02:15:47;;;;;;;27.70;6.40;;;;;;;11.02;82.60;101134.44;5056061;28;20037;-47
2022/05/26 02:18:20;;;;;;;27.77;7.07;;;;;;;11.02;83.21;101137.13;5057080;28;20082;-47
2022/05/26 02:20:54;;;;;;;24.63;6.63;;;;;;;11.02;83.03;101137.13;5057523;28;20032;-47
2022/05/26 02:23:30;;;;;;;23.83;6.47;;;;;;;11.02;83.11;101136.31;5068107;28;20511;-47
2022/05/26 02:25:59;;;;;;;28.27;7.18;;;;;;;11.00;83.11;101141.03;5077066;28;20481;-47
2022/05/26 02:28:26;;;;;;;37.70;7.45;;;;;;;11.02;83.39;101144.38;5095072;28;20456;-47
2022/05/26 02:30:53;;;;;;;33.88;7.57;;;;;;;11.01;83.42;101138.16;5095212;28;20032;-47
2022/05/26 02:33:18;;;;;;;19.13;5.25;;;;;;;11.00;83.05;101138.34;5095354;28;20529;-49
2022/05/26 02:35:49;;;;;;;27.15;6.68;;;;;;;10.90;83.13;101143.97;5076879;28;20024;-52
2022/05/26 02:38:19;;;;;;;35.88;7.03;;;;;;;10.98;82.92;101151.94;5096829;28;20051;-50
2022/05/26 02:40:46;;;;;;;21.45;6.32;;;;;;;10.98;82.92;101162.69;5079416;28;20031;-51
2022/05/26 02:43:24;;;;;;;27.70;6.88;;;;;;;10.94;82.97;101152.47;5095189;28;20115;-50
2022/05/26 02:46:23;;;;;;;29.55;6.72;;;;;;;10.95;83.36;101154.97;5095331;28;20024;-48
2022/05/26 02:49:14;;;;;;;20.27;5.85;;;;;;;10.94;83.06;101158.69;5081627;28;20456;-50
2022/05/26 02:51:46;;;;;;;31.05;6.90;;;;;;;10.91;82.95;101164.41;5076406;28;20054;-52
2022/05/26 02:54:44;;;;;;;25.20;6.95;;;;;;;10.87;82.85;101157.75;5095202;28;20024;-49
2022/05/26 02:57:29;;;;;;;31.02;6.55;;;;;;;10.88;83.26;101166.63;5062347;28;20035;-48
2022/05/26 03:00:06;;;;;;;21.88;5.95;;;;;;;10.75;83.06;101145.72;5076221;28;20115;-48
2022/05/26 03:02:47;;;;;;;26.40;6.53;;;;;;;10.84;83.48;101164.28;5076163;28;20425;-48
2022/05/26 03:05:38;;;;;;;23.52;6.45;;;;;;;10.85;82.84;101167.84;5094418;28;20054;-48
2022/05/26 03:08:08;;;;;;;28.65;6.57;;;;;;;10.84;83.53;101169.66;5046430;28;20503;-48
2022/05/26 03:10:35;;;;;;;23.05;6.28;;;;;;;10.81;83.66;101164.66;5076227;28;20028;-48
2022/05/26 03:13:01;;;;;;;25.98;6.63;;;;;;;10.72;83.51;101162.22;5094269;28;20032;-47
2022/05/26 03:15:29;;;;;;;31.10;6.88;;;;;;;10.77;83.29;101174.09;5094612;28;20081;-49
2022/05/26 03:17:55;;;;;;;20.08;5.97;;;;;;;10.69;82.85;101165.25;5094404;28;20035;-47
2022/05/26 03:20:21;;;;;;;30.15;7.43;;;;;;;10.59;83.45;101149.38;5075706;28;20115;-48
2022/05/26 03:22:46;;;;;;;20.25;6.15;;;;;;;10.70;83.51;101173.13;5075802;28;20071;-48
2022/05/26 03:25:13;;;;;;;20.20;6.30;;;;;;;10.72;83.02;101170.28;5075515;28;20025;-48
2022/05/26 03:27:39;;;;;;;19.70;5.63;;;;;;;10.70;83.21;101162.38;5076432;28;20467;-47
2022/05/26 03:30:06;;;;;;;20.40;5.53;;;;;;;10.64;83.00;101155.88;5077210;28;20040;-49
2022/05/26 03:32:32;;;;;;;27.27;6.90;;;;;;;10.66;83.76;101158.38;5076702;28;20032;-50
2022/05/26 03:43:16;;;;;;;23.55;8.05;;;;;;;10.57;83.60;101176.38;5079103;28;20054;-49
2022/05/26 03:45:42;;;;;;;19.33;6.43;;;;;;;10.57;83.32;101186.31;5094146;28;20060;-50
2022/05/26 03:48:09;;;;;;;21.60;6.70;;;;;;;10.46;83.37;101172.25;5059411;28;20403;-48
2022/05/26 03:50:36;;;;;;;19.83;7.13;;;;;;;10.55;83.32;101185.63;5076206;28;20043;-48
2022/05/26 03:53:02;;;;;;;23.73;7.22;;;;;;;10.52;83.09;101184.13;5094863;28;20032;-48
2022/05/26 03:55:28;;;;;;;19.00;6.88;;;;;;;10.51;83.38;101186.97;5094723;28;20023;-48
2022/05/26 03:57:54;;;;;;;30.40;7.13;;;;;;;10.39;83.21;101173.94;5095145;28;20032;-47
2022/05/26 04:00:23;;;;;;;18.98;7.25;;;;;;;10.47;83.01;101191.88;5094951;28;20032;-48
2022/05/26 04:02:49;;;;;;;17.92;6.75;;;;;;;10.49;83.48;101199.75;5094365;28;20028;-47
2022/05/26 04:05:16;;;;;;;25.17;6.85;;;;;;;10.48;83.22;101200.78;5094449;28;20032;-48
2022/05/26 04:07:42;;;;;;;25.80;7.32;;;;;;;10.49;83.00;101205.13;5095009;28;20244;-49
2022/05/26 04:10:10;;;;;;;24.85;6.88;;;;;;;10.45;83.26;101202.78;5095882;28;20113;-47
2022/05/26 04:12:37;;;;;;;27.08;6.53;;;;;;;10.46;83.01;101199.09;5078329;28;20496;-48
2022/05/26 04:15:04;;;;;;;19.88;6.35;;;;;;;10.47;83.08;101213.34;5095563;28;20028;-52
2022/05/26 04:17:31;;;;;;;31.77;6.55;;;;;;;10.47;83.17;101216.03;5077996;28;20032;-53
2022/05/26 04:19:56;;;;;;;17.73;6.18;;;;;;;10.33;83.13;101179.19;5094936;28;20047;-47
2022/05/26 04:22:23;;;;;;;21.60;6.20;;;;;;;10.43;83.02;101204.81;5055095;28;20466;-48
2022/05/26 04:24:55;;;;;;;28.02;6.60;;;;;;;10.46;82.75;101199.09;5073870;28;20032;-48
2022/05/26 04:27:23;;;;;;;20.70;7.03;;;;;;;10.41;82.79;101196.09;5055279;28;20036;-47
2022/05/26 04:29:49;;;;;;;28.90;7.95;;;;;;;10.49;82.94;101203.25;5073560;28;20028;-49
2022/05/26 04:32:14;;;;;;;17.95;6.85;;;;;;;10.51;83.02;101208.47;5073038;28;20032;-47
2022/05/26 04:34:42;;;;;;;23.13;6.38;;;;;;;10.49;82.47;101205.94;5055367;28;20020;-50
2022/05/26 04:37:08;;;;;;;17.38;5.88;;;;;;;10.53;82.31;101201.06;5072890;28;20037;-49
2022/05/26 04:39:34;;;;;;;21.08;6.55;;;;;;;10.54;82.19;101200.91;5073310;28;20032;-49
2022/05/26 04:42:02;;;;;;;17.92;5.43;;;;;;;10.59;82.53;101203.06;5073176;28;20028;-50
2022/05/26 04:44:32;;;;;;;20.08;5.43;;;;;;;10.54;82.23;101198.22;5055776;28;20353;-47
2022/05/26 04:46:59;;;;;;;19.30;5.55;;;;;;;10.57;82.23;101205.94;5075358;28;20117;-47
2022/05/26 04:49:25;;;;;;;24.42;5.32;;;;;;;10.61;82.21;101215.31;5040771;28;20131;-48
2022/05/26 04:51:51;;;;;;;18.48;5.05;;;;;;;10.62;81.70;101208.94;5057166;28;20031;-51
2022/05/26 04:54:17;;;;;;;19.75;5.70;;;;;;;10.68;81.88;101211.91;5074486;28;20021;-47
2022/05/26 04:56:43;;;;;;;17.25;5.53;;;;;;;10.78;81.59;101226.81;5055118;28;20103;-47
2022/05/26 04:59:09;;;;;;;18.45;4.88;;;;;;;10.73;81.82;101226.50;5072753;28;20468;-48
2022/05/26 05:01:35;;;;;;;14.18;4.90;;;;;;;10.75;81.59;101221.78;5072638;28;20064;-47
2022/05/26 05:04:01;;;;;;;26.38;5.20;;;;;;;10.84;81.59;101225.25;5054765;28;20119;-48
2022/05/26 05:06:26;;;;;;;17.15;4.50;;;;;;;10.72;81.26;101206.03;5054334;28;20115;-48
2022/05/26 05:08:52;;;;;;;18.92;4.88;;;;;;;10.86;81.16;101217.84;5054724;28;20037;-47
2022/05/26 05:11:18;;;;;;;23.02;5.30;;;;;;;10.94;80.77;101223.19;5072282;28;20108;-48
2022/05/26 05:13:44;;;;;;;13.65;4.07;;;;;;;10.97;80.42;101230.88;5072589;28;20079;-47
2022/05/26 05:16:19;;;;;;;17.17;4.32;;;;;;;11.02;80.46;101233.88;5072045;28;20471;-47
2022/05/26 05:18:45;;;;;;;15.93;4.10;;;;;;;11.07;80.05;101244.13;5072524;28;20024;-48
2022/05/26 05:21:17;;;;;;;19.65;4.18;;;;;;;11.10;79.83;101243.75;5054275;28;20441;-48
2022/05/26 05:23:47;;;;;;;15.25;3.90;;;;;;;11.14;79.83;101247.75;5071983;28;20373;-50
2022/05/26 05:26:17;;;;;;;16.50;3.75;;;;;;;11.15;79.13;101240.53;5054412;28;20447;-48
2022/05/26 05:28:49;;;;;;;16.02;4.55;;;;;;;11.20;79.77;101252.44;5072293;28;20107;-48
2022/05/26 05:31:25;;;;;;;11.73;3.70;;;;;;;11.21;79.12;101247.88;5054139;28;20041;-48
2022/05/26 05:33:57;;;;;;;13.55;3.67;;;;;;;11.10;78.62;101233.00;5055133;28;20060;-48
2022/05/26 05:36:27;;;;;;;12.23;3.65;;;;;;;11.29;79.09;101247.84;5072346;28;20032;-49
2022/05/26 05:38:54;;;;;;;10.40;3.25;;;;;;;11.36;78.89;101264.09;5054655;28;20031;-47
2022/05/26 05:41:20;;;;;;;11.52;3.35;;;;;;;11.39;77.98;101271.81;5072213;28;20035;-48
2022/05/26 05:43:47;;;;;;;10.55;3.30;;;;;;;11.44;77.51;101264.03;5054157;28;20388;-49
2022/05/26 05:46:14;;;;;;;10.80;2.63;;;;;;;11.47;77.33;101257.44;5053923;28;20075;-47
2022/05/26 05:48:43;;;;;;;9.38;2.45;;;;;;;11.56;77.17;101257.19;5071869;28;20128;-47
2022/05/26 05:51:10;;;;;;;9.15;3.08;;;;;;;11.61;76.81;101260.19;5074860;28;20029;-47
2022/05/26 05:53:36;;;;;;;6.43;2.47;;;;;;;11.54;76.84;101231.50;5057412;28;20047;-48
2022/05/26 05:56:03;;;;;;;5.80;2.60;;;;;;;11.72;76.00;101250.84;5075600;28;20029;-48
2022/05/26 05:58:28;;;;;;;10.18;2.33;;;;;;;11.62;76.05;101226.88;5076331;28;20082;-48
2022/05/26 06:00:54;;;;;;;8.00;2.50;;;;;;;11.85;75.55;101257.44;5077762;28;20028;-49
2022/05/26 06:03:20;;;;;;;6.25;2.47;;;;;;;11.92;75.42;101263.81;5075599;28;20029;-48
2022/05/26 06:05:46;;;;;;;10.23;3.13;;;;;;;11.96;75.73;101267.81;5075118;28;20089;-49
2022/05/26 06:08:12;;;;;;;9.52;2.47;;;;;;;12.03;75.69;101273.31;5075098;28;20036;-50
2022/05/26 06:10:38;;;;;;;10.40;2.58;;;;;;;11.94;74.62;101234.84;5057246;28;20381;-48
2022/05/26 06:13:04;;;;;;;8.35;2.17;;;;;;;12.15;74.17;101266.47;5057388;28;20062;-48
2022/05/26 06:15:32;;;;;;;9.50;2.30;;;;;;;12.29;74.46;101275.56;5057760;28;20028;-48
2022/05/26 06:17:57;;;;;;;7.82;2.35;;;;;;;12.34;73.61;101282.06;5075485;28;20031;-48
2022/05/26 06:20:23;;;;;;;10.48;2.15;;;;;;;12.32;73.04;101269.81;5075248;28;20472;-48
2022/05/26 06:22:49;;;;;;;8.77;1.95;;;;;;;12.46;72.56;101281.59;5074443;28;20050;-48
2022/05/26 06:25:17;;;;;;;7.65;2.08;;;;;;;12.49;72.13;101276.69;5075040;28;20063;-48
2022/05/26 06:30:30;;;;;;;8.43;1.60;;;;;;;12.61;71.64;101281.59;5060121;28;20120;-49
2022/05/26 06:38:35;;;;;;;8.80;1.98;;;;;;;12.67;70.00;101262.00;5060404;28;20071;-51
2022/05/26 06:43:48;;;;;;;8.48;1.83;;;;;;;12.89;70.06;101277.22;5059703;28;20116;-51
2022/05/26 06:46:15;;;;;;;6.55;1.70;;;;;;;12.93;69.84;101281.19;5039959;28;20032;-52
2022/05/26 06:48:41;;;;;;;6.38;2.00;;;;;;;12.94;69.34;101280.16;5075262;28;20028;-48
2022/05/26 06:51:07;;;;;;;8.20;2.10;;;;;;;13.01;69.72;101261.38;5075014;28;20029;-49
2022/05/26 06:53:33;;;;;;;5.15;1.60;;;;;;;13.03;69.75;101259.31;5074916;28;20032;-49
2022/05/26 06:55:59;;;;;;;11.05;1.88;;;;;;;13.12;69.07;101277.03;5075159;28;20029;-48
2022/05/26 06:58:26;;;;;;;5.05;1.80;;;;;;;13.23;69.39;101281.13;5075510;28;20048;-52
2022/05/26 07:00:52;;;;;;;13.00;2.50;;;;;;;13.34;69.50;101293.31;5074718;28;20037;-49
2022/05/26 07:03:18;;;;;;;6.95;2.30;;;;;;;13.41;69.12;101298.75;5039822;28;20024;-48
2022/05/26 07:05:44;;;;;;;11.77;2.83;;;;;;;13.43;69.29;101307.47;5075929;28;20384;-51
2022/05/26 07:08:10;;;;;;;9.82;2.50;;;;;;;13.51;69.49;101291.19;5074287;28;20021;-48
2022/05/26 07:10:35;;;;;;;10.48;2.67;;;;;;;13.59;68.67;101292.91;5074374;28;20064;-49
2022/05/26 07:13:02;;;;;;;11.65;3.25;;;;;;;13.77;68.59;101298.69;5074489;28;20112;-53
2022/05/26 07:15:28;;;;;;;16.88;2.67;;;;;;;13.79;68.45;101296.63;5074066;28;20380;-49
2022/05/26 07:17:54;;;;;;;11.93;2.42;;;;;;;13.92;68.43;101296.72;5074492;28;20031;-49
2022/05/26 07:20:20;;;;;;;11.43;2.55;;;;;;;13.86;68.24;101286.72;5055904;28;20058;-52
2022/05/26 07:22:45;;;;;;;15.02;2.83;;;;;;;14.03;67.67;101303.47;5073722;28;20131;-52
2022/05/26 07:25:12;;;;;;;6.47;2.22;;;;;;;14.08;67.26;101294.78;5073793;28;20047;-50
2022/05/26 07:27:38;;;;;;;10.18;2.65;;;;;;;14.08;67.22;101298.31;5073796;28;20025;-51
2022/05/26 07:30:05;;;;;;;9.25;2.45;;;;;;;14.24;67.10;101294.47;5055721;28;20176;-51
2022/05/26 07:32:31;;;;;;;10.20;2.58;;;;;;;14.39;66.52;101307.88;5073625;28;20032;-48
2022/05/26 07:34:57;;;;;;;4.70;2.13;;;;;;;14.48;66.64;101308.56;5073689;28;20025;-51
2022/05/26 07:42:55;;;;;;;14.75;3.35;;;;;;;14.69;65.41;101322.03;5044992;28;20116;-47
2022/05/26 07:45:22;;;;;;;9.00;3.38;;;;;;;14.68;65.61;101323.06;5055486;28;20105;-46
2022/05/26 07:47:48;;;;;;;9.73;3.00;;;;;;;14.84;65.55;101324.59;5073523;28;20031;-48
2022/05/26 07:50:20;;;;;;;14.25;3.22;;;;;;;14.92;65.33;101318.19;5073523;28;20024;-47
2022/05/26 07:52:48;;;;;;;12.25;2.70;;;;;;;14.91;64.84;101321.91;5055054;28;20109;-47
2022/05/26 07:55:15;;;;;;;9.05;2.70;;;;;;;15.08;64.23;101309.72;5055092;28;20029;-47
2022/05/26 07:57:40;;;;;;;10.23;3.40;;;;;;;15.16;64.20;101307.88;5075241;28;20505;-50
2022/05/26 08:00:08;;;;;;;12.75;2.92;;;;;;;15.33;63.58;101308.34;5075515;28;20033;-49
2022/05/26 08:02:33;;;;;;;11.50;3.30;;;;;;;15.21;64.01;101308.94;5077511;28;20024;-49
2022/05/26 08:04:59;;;;;;;14.10;3.75;;;;;;;15.46;63.71;101321.91;5075024;28;20032;-48
2022/05/26 08:07:25;;;;;;;13.80;3.60;;;;;;;15.68;63.63;101317.97;5039083;28;20111;-48
2022/05/26 08:09:51;;;;;;;16.88;3.42;;;;;;;15.69;62.88;101318.81;5076128;28;20044;-51
2022/05/26 08:12:16;;;;;;;13.43;3.70;;;;;;;15.95;61.04;101318.03;5055887;28;20028;-49
2022/05/26 08:14:44;;;;;;;11.40;3.60;;;;;;;15.99;61.41;101326.56;5076008;28;20021;-48
2022/05/26 08:17:13;;;;;;;11.13;3.13;;;;;;;15.98;61.21;101333.88;5074956;28;20447;-49
2022/05/26 08:19:39;;;;;;;10.20;3.28;;;;;;;16.62;59.58;101328.78;5073890;28;20027;-48
2022/05/26 08:22:05;;;;;;;12.95;3.30;;;;;;;16.93;59.36;101325.38;5073358;28;20032;-49
2022/05/26 08:24:31;;;;;;;8.20;2.45;;;;;;;17.50;57.30;101327.41;5073969;28;20346;-53
2022/05/26 08:26:57;;;;;;;10.45;2.88;;;;;;;17.32;57.17;101311.84;5073508;28;20544;-52
2022/05/26 08:29:23;;;;;;;8.13;2.20;;;;;;;17.68;56.37;101322.06;5073647;28;20119;-51
2022/05/26 08:31:48;;;;;;;9.60;2.97;;;;;;;17.69;56.12;101321.00;5074370;28;20033;-49
2022/05/26 08:34:14;;;;;;;6.47;2.63;;;;;;;17.87;56.41;101325.72;5074103;28;20108;-50
2022/05/26 08:36:40;;;;;;;9.82;3.40;;;;;;;17.50;57.05;101322.81;5074122;28;20029;-50
2022/05/26 08:39:06;;;;;;;11.80;3.20;;;;;;;17.82;56.14;101314.66;5073614;28;20032;-52
2022/05/26 08:41:39;;;;;;;7.28;2.38;;;;;;;17.39;57.06;101315.34;5072883;28;20198;-48
2022/05/26 08:44:11;;;;;;;6.75;2.05;;;;;;;17.17;57.97;101323.81;5038929;28;20078;-49
2022/05/26 08:46:45;;;;;;;8.50;2.55;;;;;;;17.31;58.41;101326.47;5073349;28;20040;-48
2022/05/26 08:49:22;;;;;;;7.28;1.95;;;;;;;17.48;57.06;101329.53;5055496;28;20048;-48
2022/05/26 08:52:00;;;;;;;12.50;2.67;;;;;;;17.31;57.45;101337.31;5073538;28;20108;-48
2022/05/26 08:54:35;;;;;;;12.18;3.05;;;;;;;17.27;57.97;101347.78;5073228;28;20032;-50
2022/05/26 08:57:02;;;;;;;7.78;2.42;;;;;;;17.06;58.58;101348.94;5038563;28;20048;-53
2022/05/26 08:59:41;;;;;;;9.90;2.92;;;;;;;16.72;59.55;101334.63;5054063;28;20108;-48
2022/05/26 09:02:33;;;;;;;14.10;3.15;;;;;;;16.72;59.37;101367.16;5054767;28;20025;-48
2022/05/26 09:05:03;;;;;;;9.18;3.28;;;;;;;16.62;59.86;101355.91;5072079;28;20032;-51
2022/05/26 09:13:12;;;;;;;12.20;3.70;;;;;;;16.52;60.81;101361.78;5057161;28;20029;-53
2022/05/26 09:15:39;;;;;;;17.95;3.95;;;;;;;16.49;60.36;101355.94;5054608;28;20059;-49
2022/05/26 09:18:16;;;;;;;10.88;3.60;;;;;;;16.73;59.82;101359.84;5072292;28;20036;-50
2022/05/26 09:20:45;;;;;;;8.85;3.42;;;;;;;16.79;60.08;101351.72;5072022;28;20025;-48
2022/05/26 09:23:31;;;;;;;9.95;3.60;;;;;;;16.91;59.57;101359.22;5063944;28;20044;-48
2022/05/26 09:26:08;;;;;;;6.18;3.25;;;;;;;16.83;59.79;101361.13;5096336;28;20382;-49
2022/05/26 09:28:50;;;;;;;10.85;2.95;;;;;;;16.95;59.57;101355.03;5096299;28;20034;-50
2022/05/26 09:31:29;;;;;;;7.82;3.38;;;;;;;16.93;59.22;101348.97;5096095;28;20032;-49
2022/05/26 09:34:06;;;;;;;9.27;2.88;;;;;;;17.11;59.19;101362.69;5063217;28;20032;-49
2022/05/26 09:36:40;;;;;;;8.00;3.17;;;;;;;16.99;59.41;101359.81;5095998;28;20028;-49
2022/05/26 09:39:07;;;;;;;10.38;2.90;;;;;;;16.73;59.72;101363.38;5096059;28;20047;-52
2022/05/26 09:41:39;;;;;;;9.52;2.72;;;;;;;16.85;59.67;101360.09;5077884;28;20119;-50
2022/05/26 09:44:25;;;;;;;7.35;2.83;;;;;;;17.05;58.79;101355.41;5078162;28;20472;-50
2022/05/26 09:46:54;;;;;;;5.18;2.85;;;;;;;17.04;58.98;101364.59;5064648;28;20028;-49
2022/05/26 09:49:24;;;;;;;16.05;2.92;;;;;;;17.16;59.34;101364.75;5100309;28;20020;-48
2022/05/26 09:52:02;;;;;;;8.32;2.42;;;;;;;17.20;59.27;101347.81;5100057;28;20035;-48
2022/05/26 09:54:31;;;;;;;11.65;2.65;;;;;;;17.30;58.59;101343.81;5098788;28;20306;-48
2022/05/26 09:56:56;;;;;;;7.45;2.60;;;;;;;17.59;58.50;101350.56;5078373;28;20051;-49
2022/05/26 09:59:34;;;;;;;9.95;2.50;;;;;;;17.85;57.39;101348.72;5096386;28;20433;-49
2022/05/26 10:02:10;;;;;;;8.05;2.72;;;;;;;17.87;56.71;101347.47;5095584;28;20105;-49
2022/05/26 10:04:55;;;;;;;8.88;2.53;;;;;;;17.73;56.71;101341.25;5096177;28;20111;-48
2022/05/26 10:07:49;;;;;;;7.28;2.28;;;;;;;18.31;54.66;101348.34;5078805;28;20218;-49
2022/05/26 10:10:41;;;;;;;8.93;2.47;;;;;;;18.54;54.23;101344.16;5080304;28;20032;-50
2022/05/26 10:13:36;;;;;;;8.55;2.50;;;;;;;19.49;51.93;101334.66;5063922;28;20086;-47
2022/05/26 10:16:24;;;;;;;5.00;1.90;;;;;;;19.80;51.15;101330.00;5081428;28;20419;-49
2022/05/26 10:19:29;;;;;;;5.43;1.98;;;;;;;18.83;53.16;101330.88;5095293;28;20028;-47
2022/05/26 10:22:13;;;;;;;4.93;1.88;;;;;;;18.97;53.02;101342.47;5082596;28;20527;-47
2022/05/26 10:25:19;;;;;;;3.65;1.58;;;;;;;21.22;46.62;101328.84;5076528;28;20028;-49
2022/05/26 10:28:00;;;;;;;5.45;1.58;;;;;;;21.63;45.43;101321.44;5069080;28;20028;-50
2022/05/26 10:30:43;;;;;;;5.07;1.60;;;;;;;21.83;44.96;101312.75;5095769;28;20359;-56
2022/05/26 10:33:33;;;;;;;7.22;1.73;;;;;;;21.59;45.99;101316.72;5095622;28;20480;-52
2022/05/26 10:36:18;;;;;;;4.78;1.48;;;;;;;20.36;48.68;101319.66;5079422;28;20032;-50
2022/05/26 10:39:04;;;;;;;;;;;;;;;19.84;49.10;101317.59;5077545;28;20119;-48
2022/05/26 10:41:42;;;;;;;5.88;1.65;;;;;;;19.83;50.19;101321.38;5080063;28;19988;-49
2022/05/26 10:44:18;;;;;;;3.85;1.52;;;;;;;20.65;48.62;101323.31;5077366;28;20031;-53
2022/05/26 10:46:54;;;;;;;5.22;1.40;;;;;;;20.23;49.62;101320.72;5095318;28;20028;-52
2022/05/26 10:49:30;;;;;;;3.35;1.60;;;;;;;19.69;49.85;101298.94;5095983;28;20039;-49
2022/05/26 10:52:02;;;;;;;3.22;1.80;;;;;;;19.14;51.24;101316.25;5078548;28;20032;-52
2022/05/26 10:54:41;;;;;;;5.40;2.13;;;;;;;18.85;52.47;101342.38;5061959;28;20024;-49
2022/05/26 10:57:18;;;;;;;8.88;1.65;;;;;;;18.62;52.94;101343.84;5079181;28;20384;-52
2022/05/26 10:59:49;;;;;;;3.97;1.92;;;;;;;18.28;53.77;101342.53;5095020;28;20077;-51
2022/05/26 11:02:23;;;;;;;2.15;1.60;;;;;;;18.20;54.61;101343.63;5077093;28;20476;-48
2022/05/26 11:05:05;;;;;;;2.47;1.65;;;;;;;17.81;55.66;101356.44;5076745;28;20033;-48
2022/05/26 11:07:41;;;;;;;4.32;2.00;;;;;;;17.79;56.08;101350.41;5096936;28;20028;-49
2022/05/26 11:10:31;;;;;;;7.45;1.70;;;;;;;17.64;56.22;101358.03;5097656;28;20214;-52
2022/05/26 11:13:15;;;;;;;2.28;1.70;;;;;;;17.96;55.62;101353.47;5066268;28;20035;-51
2022/05/26 11:18:43;;;;;;;4.97;1.88;;;;;;;18.32;55.09;101341.03;5050030;28;20506;-48
2022/05/26 11:21:14;;;;;;;5.47;1.52;;;;;;;18.38;54.91;101343.66;5077860;28;20112;-52
2022/05/26 11:23:41;;;;;;;5.53;1.50;;;;;;;19.24;53.05;101322.00;5078236;28;20063;-49
2022/05/26 11:26:37;;;;;;;3.30;1.38;;;;;;;19.67;52.55;101312.78;5096693;28;20032;-54
2022/05/26 11:29:34;;;;;;;2.78;1.50;;;;;;;20.28;50.82;101318.94;5067045;28;20094;-53
2022/05/26 11:38:15;;;;;;;3.60;1.65;;;;;;;20.99;48.31;101318.84;5080631;28;20031;-52
2022/05/26 11:40:51;;;;;;;4.35;1.60;;;;;;;20.62;50.21;101319.16;5096154;28;20032;-53
2022/05/26 11:43:42;;;;;;;6.20;1.95;;;;;;;22.05;45.83;101309.28;5079497;28;20111;-52
2022/05/26 11:46:10;;;;;;;10.27;1.83;;;;;;;22.22;45.63;101301.88;5080482;28;20028;-49
2022/05/26 11:48:41;;;;;;;7.80;1.90;;;;;;;21.55;47.62;101301.88;5076802;28;20032;-49
2022/05/26 11:51:29;;;;;;;7.32;2.10;;;;;;;21.22;46.68;101290.59;5093823;28;20480;-50
2022/05/26 11:53:56;;;;;;;4.85;1.60;;;;;;;20.86;47.94;101308.19;5093620;28;20115;-50
2022/05/26 11:56:41;;;;;;;4.57;1.63;;;;;;;20.43;49.45;101314.88;5093867;28;20087;-48
2022/05/26 11:59:42;;;;;;;7.10;1.98;;;;;;;20.63;49.19;101307.16;5075394;28;20032;-50
2022/05/26 12:02:15;;;;;;;6.53;1.92;;;;;;;21.46;47.96;101306.91;5058742;28;20032;-49
2022/05/26 12:04:45;;;;;;;4.00;1.83;;;;;;;21.03;48.43;101292.69;5093852;28;20024;-47
2022/05/26 12:07:36;;;;;;;5.90;2.20;;;;;;;20.28;49.91;101305.28;5093654;28;20192;-50
2022/05/26 12:10:17;;;;;;;5.03;1.98;;;;;;;20.79;48.63;101299.31;5078964;28;20035;-47
2022/05/26 12:12:43;;;;;;;8.60;2.10;;;;;;;20.57;49.55;101291.72;5093559;28;20100;-50
2022/05/26 12:15:20;;;;;;;6.60;2.05;;;;;;;20.02;50.75;101292.09;5093134;28;20111;-47
2022/05/26 12:17:49;;;;;;;4.50;1.77;;;;;;;19.76;52.25;101294.22;5058221;28;20034;-49
2022/05/26 12:20:33;;;;;;;8.13;2.30;;;;;;;19.77;52.25;101292.34;5074937;28;20032;-48
2022/05/26 12:23:18;;;;;;;4.05;1.55;;;;;;;20.01;51.42;101290.47;5074791;28;20043;-48
2022/05/26 12:25:46;;;;;;;6.95;1.95;;;;;;;21.87;47.88;101276.72;5093196;28;20036;-47